Time;durP1;ratioP1;P1;durP2;ratioP2;P2;SDS_P1;SDS_P2;PMS_P1;PMS_P2;Temp;Humidity;BMP_temperature;BMP_pressure;BME280_temperature;BME280_humidity;BME280_pressure;Samples;Min_cycle;Max_cycle;Signal;HPM_P1;HPM_P2
2023/03/15 00:00:11;;;;;;;5.18;2.53;;;;;;;1.84;100.00;99716.97;5006113;28;20478;-75
2023/03/15 00:02:36;;;;;;;6.53;2.80;;;;;;;1.71;100.00;99704.56;5005702;28;20045;-69
2023/03/15 00:05:02;;;;;;;5.50;2.55;;;;;;;0.87;100.00;99549.22;5001145;28;20203;-69
2023/03/15 00:07:28;;;;;;;19.83;3.55;;;;;;;0.98;100.00;99560.72;4997983;28;20454;-73
2023/03/15 00:09:53;;;;;;;5.10;2.75;;;;;;;0.89;100.00;99580.25;5000433;28;20033;-71
2023/03/15 00:12:21;;;;;;;9.23;3.50;;;;;;;1.60;100.00;99681.06;4999085;28;20434;-72
2023/03/15 00:14:48;;;;;;;7.95;2.40;;;;;;;1.61;100.00;99691.41;5000217;28;20406;-69
2023/03/15 00:17:13;;;;;;;6.25;2.85;;;;;;;1.35;100.00;99654.59;5002707;28;20050;-70
2023/03/15 00:19:39;;;;;;;4.40;2.13;;;;;;;0.91;100.00;99582.03;5003636;28;20992;-69
2023/03/15 00:22:05;;;;;;;22.67;5.75;;;;;;;1.33;100.00;99640.75;5000692;28;20050;-71
2023/03/15 00:24:30;;;;;;;4.15;3.20;;;;;;;0.74;100.00;99570.41;4999309;28;20034;-71
2023/03/15 00:26:56;;;;;;;6.57;3.13;;;;;;;1.48;100.00;99682.50;5006807;28;20149;-71
2023/03/15 00:29:21;;;;;;;4.85;2.58;;;;;;;0.76;100.00;99536.03;5001536;28;20042;-70
2023/03/15 00:31:47;;;;;;;6.07;2.63;;;;;;;0.83;100.00;99566.34;4999330;28;20042;-70
2023/03/15 00:34:12;;;;;;;6.72;2.80;;;;;;;0.78;100.00;99536.09;5004399;28;20120;-71
2023/03/15 00:36:38;;;;;;;6.72;2.67;;;;;;;0.81;100.00;99551.66;4998774;28;21142;-72
2023/03/15 00:39:04;;;;;;;4.93;2.25;;;;;;;0.63;100.00;99531.41;5005087;28;20081;-70
2023/03/15 00:41:30;;;;;;;7.13;3.03;;;;;;;0.57;100.00;99533.84;5004757;28;20092;-70
2023/03/15 00:43:56;;;;;;;6.05;3.15;;;;;;;0.57;100.00;99528.69;4995230;28;20081;-70
2023/03/15 00:46:22;;;;;;;4.70;2.08;;;;;;;1.13;100.00;99623.91;5003696;28;20070;-70
2023/03/15 00:48:49;;;;;;;4.40;1.98;;;;;;;1.19;100.00;99637.84;5001904;28;20782;-71
2023/03/15 00:51:18;;;;;;;6.15;3.38;;;;;;;1.10;100.00;99632.47;5001760;28;21372;-69
2023/03/15 00:53:46;;;;;;;5.50;3.10;;;;;;;1.10;100.00;99629.88;5001428;28;20510;-70
2023/03/15 00:56:20;;;;;;;5.78;3.22;;;;;;;1.03;100.00;99630.53;5003233;28;20453;-70
2023/03/15 00:58:46;;;;;;;6.43;3.35;;;;;;;0.27;100.00;99484.88;4997255;28;20770;-70
2023/03/15 01:01:18;;;;;;;6.68;3.05;;;;;;;0.90;100.00;99621.59;5005410;28;20054;-72
2023/03/15 01:03:44;;;;;;;5.50;2.45;;;;;;;0.76;100.00;99598.00;5005990;28;20048;-69
2023/03/15 01:06:13;;;;;;;10.55;4.65;;;;;;;0.72;100.00;99603.06;5003158;28;20563;-71
2023/03/15 01:08:40;;;;;;;4.63;2.75;;;;;;;0.02;100.00;99473.91;5002493;28;20053;-69
2023/03/15 01:11:08;;;;;;;8.68;4.07;;;;;;;0.76;100.00;99586.81;5002406;28;20383;-70
2023/03/15 01:13:34;;;;;;;4.47;2.38;;;;;;;0.31;100.00;99510.81;5001367;28;20061;-69
2023/03/15 01:16:00;;;;;;;8.45;3.45;;;;;;;0.89;100.00;99601.78;5005426;28;20501;-69
2023/03/15 01:18:25;;;;;;;9.60;4.38;;;;;;;0.50;100.00;99562.91;5001749;28;20041;-70
2023/03/15 01:20:51;;;;;;;7.82;3.40;;;;;;;-0.15;100.00;99442.50;5001831;28;20049;-71
2023/03/15 01:23:17;;;;;;;12.43;3.97;;;;;;;0.63;100.00;99575.28;4997203;28;20062;-70
2023/03/15 01:25:42;;;;;;;8.32;4.38;;;;;;;0.60;100.00;99576.06;5003115;28;20069;-70
2023/03/15 01:28:08;;;;;;;13.05;4.55;;;;;;;0.63;100.00;99570.13;5004028;28;20065;-70
2023/03/15 01:30:33;;;;;;;6.88;4.50;;;;;;;0.63;100.00;99565.84;4983084;28;20030;-72
2023/03/15 01:32:59;;;;;;;7.35;4.05;;;;;;;0.44;100.00;99522.31;4986713;28;20078;-70
2023/03/15 01:35:24;;;;;;;10.15;4.40;;;;;;;0.68;100.00;99555.66;4999665;28;20587;-70
2023/03/15 01:37:51;;;;;;;10.10;4.80;;;;;;;0.24;100.00;99484.81;5003242;28;20050;-70
2023/03/15 01:40:17;;;;;;;6.38;3.75;;;;;;;0.01;100.00;99450.66;5000883;28;20241;-70
2023/03/15 01:43:01;;;;;;;10.40;5.13;;;;;;;0.56;100.00;99545.88;5006625;28;20033;-69
2023/03/15 01:45:46;;;;;;;;;;;;;;;0.57;100.00;99542.44;5004891;28;20516;-71
2023/03/15 01:48:13;;;;;;;10.45;6.10;;;;;;;0.46;100.00;99484.50;4992636;28;19976;-71
2023/03/15 01:50:38;;;;;;;12.90;6.28;;;;;;;0.54;100.00;99498.50;5003679;28;20049;-70
2023/03/15 01:53:04;;;;;;;6.38;3.40;;;;;;;0.69;100.00;99516.06;5001435;28;20048;-70
2023/03/15 01:55:31;;;;;;;7.75;3.90;;;;;;;0.70;100.00;99519.53;5000891;28;20478;-69
2023/03/15 01:57:58;;;;;;;11.93;5.28;;;;;;;0.47;100.00;99478.53;5003445;28;20048;-70
2023/03/15 02:00:24;;;;;;;25.90;7.65;;;;;;;0.67;100.00;99489.34;4998261;28;20120;-70
2023/03/15 02:02:51;;;;;;;11.27;5.57;;;;;;;0.80;100.00;99500.84;4996791;28;20168;-70
2023/03/15 02:05:24;;;;;;;6.90;3.17;;;;;;;0.71;100.00;99491.16;5002100;28;20049;-74
2023/03/15 02:07:53;;;;;;;10.38;5.63;;;;;;;0.63;100.00;99477.19;5002086;28;20041;-72
2023/03/15 02:10:34;;;;;;;8.45;3.33;;;;;;;-0.03;100.00;99313.03;5000456;28;20096;-72
2023/03/15 02:13:01;;;;;;;11.00;4.28;;;;;;;0.98;100.00;99478.06;5005635;28;20370;-69
2023/03/15 02:15:27;;;;;;;10.75;5.88;;;;;;;1.10;100.00;99482.63;5002847;28;20033;-69
2023/03/15 02:17:52;;;;;;;9.63;4.15;;;;;;;0.77;100.00;99366.50;5002020;28;20053;-69
2023/03/15 02:20:34;;;;;;;9.52;4.20;;;;;;;1.20;100.00;99482.00;5003505;28;20046;-71
2023/03/15 02:23:12;;;;;;;9.65;4.72;;;;;;;0.43;100.00;99337.38;5007715;28;20061;-69
2023/03/15 02:25:56;;;;;;;13.45;5.72;;;;;;;1.54;100.00;99474.09;5004637;28;20585;-72
2023/03/15 02:28:22;;;;;;;7.75;4.10;;;;;;;1.58;100.00;99455.22;5003290;28;20057;-71
2023/03/15 02:30:48;;;;;;;6.80;3.88;;;;;;;1.27;100.00;99472.66;5005599;28;20037;-72
2023/03/15 02:33:26;;;;;;;10.52;4.68;;;;;;;1.29;100.00;99455.50;5010740;28;20052;-72
2023/03/15 02:35:53;;;;;;;11.02;5.45;;;;;;;0.61;100.00;99342.09;5004694;28;20580;-71
2023/03/15 02:38:18;;;;;;;10.32;4.57;;;;;;;1.57;100.00;99451.78;5009713;28;20092;-71
2023/03/15 02:40:45;;;;;;;9.02;4.22;;;;;;;0.49;100.00;99365.00;5009327;28;20760;-70
2023/03/15 02:43:19;;;;;;;15.77;7.30;;;;;;;1.27;100.00;99452.00;5001112;28;20061;-71
2023/03/15 02:45:45;;;;;;;;;;;;;;;0.70;100.00;99448.09;5007329;28;20095;-69
2023/03/15 02:48:12;;;;;;;6.03;4.15;;;;;;;0.65;100.00;99444.53;5010444;28;20019;-69
2023/03/15 02:50:38;;;;;;;9.82;5.00;;;;;;;0.25;100.00;99324.91;5005751;28;20042;-69
2023/03/15 02:53:04;;;;;;;9.75;4.03;;;;;;;0.83;100.00;99426.03;5008565;28;20104;-71
2023/03/15 02:55:33;;;;;;;13.98;4.80;;;;;;;0.59;100.00;99388.50;5001993;28;20429;-72
2023/03/15 02:58:00;;;;;;;9.70;3.92;;;;;;;0.75;100.00;99419.81;5003759;28;20038;-71
2023/03/15 03:00:25;;;;;;;8.55;4.35;;;;;;;0.63;100.00;99416.13;5009046;28;20033;-71
2023/03/15 03:02:51;;;;;;;7.68;4.05;;;;;;;0.73;100.00;99419.78;5009430;28;20406;-69
2023/03/15 03:05:17;;;;;;;7.05;4.53;;;;;;;0.71;100.00;99424.03;5007492;28;20056;-70
2023/03/15 03:07:43;;;;;;;7.57;3.67;;;;;;;0.70;100.00;99404.22;5009112;28;20486;-71
2023/03/15 03:10:11;;;;;;;7.40;3.38;;;;;;;-0.23;100.00;99248.13;5001092;28;20069;-72
2023/03/15 03:12:37;;;;;;;6.70;3.85;;;;;;;0.05;100.00;99305.47;4997446;28;20579;-71
2023/03/15 03:15:03;;;;;;;9.85;7.25;;;;;;;0.26;100.00;99313.75;5005005;28;20088;-70
2023/03/15 03:17:30;;;;;;;7.50;4.60;;;;;;;-0.09;100.00;99251.91;5006857;28;20042;-72
2023/03/15 03:19:56;;;;;;;9.60;6.13;;;;;;;0.63;100.00;99392.91;5004607;28;20045;-70
2023/03/15 03:22:24;;;;;;;9.23;5.18;;;;;;;0.73;100.00;99385.38;5005207;28;20051;-71
2023/03/15 03:24:51;;;;;;;8.90;5.68;;;;;;;0.80;100.00;99361.44;4997304;28;20390;-73
2023/03/15 03:27:17;;;;;;;11.55;5.03;;;;;;;0.06;100.00;99253.97;5003971;28;20036;-69
2023/03/15 03:29:44;;;;;;;5.60;3.78;;;;;;;0.48;100.00;99247.16;5005166;28;20050;-71
2023/03/15 03:32:09;;;;;;;7.35;4.85;;;;;;;0.39;100.00;99247.81;4999735;28;20141;-72
2023/03/15 03:34:35;;;;;;;13.93;4.72;;;;;;;1.00;100.00;99391.13;5002135;28;20150;-69
2023/03/15 03:37:01;;;;;;;12.13;6.53;;;;;;;0.69;100.00;99361.19;5004869;28;20113;-71
2023/03/15 03:39:27;;;;;;;12.07;5.07;;;;;;;0.58;100.00;99342.00;5000013;28;20069;-69
2023/03/15 03:41:52;;;;;;;12.02;6.72;;;;;;;0.14;100.00;99259.28;5002153;28;20045;-70
2023/03/15 03:44:18;;;;;;;6.88;4.72;;;;;;;0.23;100.00;99261.22;5003809;28;20030;-71
2023/03/15 03:46:43;;;;;;;8.57;5.50;;;;;;;0.96;100.00;99372.94;5000249;28;20089;-71
2023/03/15 03:49:09;;;;;;;7.65;4.43;;;;;;;0.09;100.00;99241.13;5001151;28;21421;-72
2023/03/15 03:51:35;;;;;;;14.00;5.75;;;;;;;0.77;100.00;99366.50;4996106;28;20049;-72
2023/03/15 03:54:01;;;;;;;7.50;4.93;;;;;;;0.39;100.00;99278.78;5003405;28;20082;-69
2023/03/15 03:56:27;;;;;;;9.48;4.70;;;;;;;0.91;100.00;99390.91;5001734;28;20050;-72
2023/03/15 03:58:52;;;;;;;11.82;6.03;;;;;;;0.50;100.00;99330.63;5005244;28;20069;-71
2023/03/15 04:01:18;;;;;;;15.05;4.35;;;;;;;0.30;100.00;99294.91;5001549;28;20175;-71
2023/03/15 04:03:43;;;;;;;9.30;4.45;;;;;;;0.69;100.00;99344.81;5003374;28;20037;-69
2023/03/15 04:06:09;;;;;;;8.80;4.05;;;;;;;0.66;100.00;99366.28;5019790;28;20098;-73
2023/03/15 04:08:34;;;;;;;10.27;4.82;;;;;;;0.93;100.00;99353.09;5000380;28;20038;-70
2023/03/15 04:11:02;;;;;;;11.98;5.68;;;;;;;0.23;100.00;99284.44;4999985;28;20054;-70
2023/03/15 04:13:30;;;;;;;10.65;5.18;;;;;;;-0.13;100.00;99220.84;5003243;28;20046;-71
2023/03/15 04:15:56;;;;;;;9.07;4.85;;;;;;;0.12;100.00;99242.94;5000763;28;22375;-73
2023/03/15 04:18:22;;;;;;;10.20;5.75;;;;;;;0.64;100.00;99336.97;5002441;28;20030;-70
2023/03/15 04:20:47;;;;;;;18.10;7.47;;;;;;;0.70;100.00;99346.56;5004319;28;20507;-71
2023/03/15 04:23:14;;;;;;;7.90;5.53;;;;;;;-0.11;100.00;99203.72;5005481;28;20153;-70
2023/03/15 04:25:40;;;;;;;17.20;6.82;;;;;;;0.68;100.00;99336.22;4999636;28;20050;-70
2023/03/15 04:28:09;;;;;;;8.98;6.05;;;;;;;0.44;100.00;99305.53;5002883;28;20156;-71
2023/03/15 04:30:35;;;;;;;7.80;4.53;;;;;;;-0.41;100.00;99197.00;4998398;28;20104;-72
2023/03/15 04:33:02;;;;;;;13.43;5.55;;;;;;;-0.47;100.00;99182.28;5001500;28;20064;-73
2023/03/15 04:35:38;;;;;;;8.57;5.32;;;;;;;0.32;100.00;99294.97;5000290;28;20072;-69
2023/03/15 04:38:05;;;;;;;8.35;5.60;;;;;;;-0.51;100.00;99174.44;4991694;28;20054;-69
2023/03/15 04:40:33;;;;;;;12.98;4.80;;;;;;;-0.58;100.00;99165.69;5002111;28;20050;-71
2023/03/15 04:43:02;;;;;;;9.05;4.75;;;;;;;0.38;100.00;99300.28;5001824;28;20493;-70
2023/03/15 04:45:29;;;;;;;26.10;8.48;;;;;;;0.44;100.00;99327.91;4995153;28;20129;-69
2023/03/15 04:47:54;;;;;;;18.45;6.50;;;;;;;0.22;100.00;99264.63;5003586;28;20077;-69
2023/03/15 04:50:21;;;;;;;20.45;6.55;;;;;;;-0.35;100.00;99178.22;4999956;28;20080;-70
2023/03/15 04:52:47;;;;;;;11.32;7.05;;;;;;;0.49;100.00;99321.13;5000826;28;20042;-72
2023/03/15 04:55:13;;;;;;;8.85;5.25;;;;;;;-0.37;100.00;99170.47;5004406;28;20045;-70
2023/03/15 04:57:39;;;;;;;10.25;6.82;;;;;;;0.52;100.00;99316.94;5003987;28;20084;-70
2023/03/15 05:00:06;;;;;;;10.25;5.65;;;;;;;0.50;100.00;99310.84;5002080;28;20108;-70
2023/03/15 05:02:32;;;;;;;13.63;5.75;;;;;;;0.28;100.00;99273.41;4999261;28;20045;-71
2023/03/15 05:04:58;;;;;;;9.13;5.90;;;;;;;0.18;100.00;99250.78;5000496;28;20048;-71
2023/03/15 05:07:23;;;;;;;18.73;6.88;;;;;;;0.49;100.00;99291.06;5003567;28;20050;-70
2023/03/15 05:09:49;;;;;;;11.68;7.57;;;;;;;0.27;100.00;99219.19;5005159;28;20022;-70
2023/03/15 05:12:15;;;;;;;12.10;6.35;;;;;;;-0.22;100.00;99157.06;4998186;28;20072;-69
2023/03/15 05:14:40;;;;;;;10.70;6.10;;;;;;;0.54;100.00;99312.69;5002383;28;20096;-70
2023/03/15 05:17:06;;;;;;;13.18;7.53;;;;;;;0.59;100.00;99290.41;4999667;28;20053;-73
2023/03/15 05:19:33;;;;;;;12.70;7.43;;;;;;;0.14;100.00;99177.66;4997904;28;20058;-70
2023/03/15 05:22:02;;;;;;;19.30;5.78;;;;;;;0.32;100.00;99267.44;5003280;28;20470;-71
2023/03/15 05:24:28;;;;;;;10.43;6.75;;;;;;;0.37;100.00;99209.06;5004791;28;20029;-70
2023/03/15 05:26:53;;;;;;;14.02;6.88;;;;;;;0.07;100.00;99213.56;5001897;28;20088;-71
2023/03/15 05:29:22;;;;;;;14.05;6.75;;;;;;;-0.25;100.00;99138.97;5003224;28;20046;-72
2023/03/15 05:31:48;;;;;;;11.43;5.38;;;;;;;0.70;100.00;99297.50;5004429;28;20397;-71
2023/03/15 05:34:14;;;;;;;17.33;9.43;;;;;;;0.25;100.00;99195.06;4995492;28;20069;-71
2023/03/15 05:36:40;;;;;;;11.68;6.68;;;;;;;0.82;100.00;99305.53;5006978;28;20141;-70
2023/03/15 05:39:06;;;;;;;10.60;5.80;;;;;;;0.56;100.00;99276.56;4998999;28;20046;-69
2023/03/15 05:41:32;;;;;;;9.80;5.28;;;;;;;0.09;100.00;99162.91;5000206;28;20054;-70
2023/03/15 05:43:58;;;;;;;20.08;8.00;;;;;;;0.07;100.00;99141.34;5004626;28;20041;-70
2023/03/15 05:46:23;;;;;;;11.10;6.57;;;;;;;0.88;100.00;99290.16;5000576;28;20038;-70
2023/03/15 05:48:49;;;;;;;16.50;6.65;;;;;;;0.83;100.00;99263.38;4997767;28;20482;-69
2023/03/15 05:51:14;;;;;;;31.63;8.60;;;;;;;0.30;100.00;99137.53;4989751;28;20441;-69
2023/03/15 05:53:40;;;;;;;12.07;5.63;;;;;;;1.12;100.00;99286.31;4990477;28;20054;-71
2023/03/15 05:56:06;;;;;;;8.23;4.90;;;;;;;0.59;100.00;99145.00;5006152;28;20045;-70
2023/03/15 05:58:32;;;;;;;20.23;9.18;;;;;;;1.56;100.00;99302.66;5000107;28;20152;-75
2023/03/15 06:01:00;;;;;;;11.45;5.85;;;;;;;1.85;100.00;99313.53;5014977;28;20044;-70
2023/03/15 06:03:26;;;;;;;12.27;6.75;;;;;;;1.77;100.00;99309.94;5004337;28;20124;-70
2023/03/15 06:05:51;;;;;;;19.58;7.22;;;;;;;2.10;100.00;99299.25;5005345;28;20751;-71
2023/03/15 06:08:17;;;;;;;19.60;7.63;;;;;;;1.88;100.00;99328.22;5005505;28;20053;-71
2023/03/15 06:10:42;;;;;;;12.57;6.55;;;;;;;2.22;100.00;99334.81;4997827;28;20041;-71
2023/03/15 06:13:08;;;;;;;13.65;6.25;;;;;;;2.16;100.00;99319.22;5006246;28;20054;-73
2023/03/15 06:15:33;;;;;;;11.43;6.57;;;;;;;1.63;100.00;99211.44;4993951;28;20561;-70
2023/03/15 06:17:59;;;;;;;15.13;7.63;;;;;;;1.75;100.00;99221.09;4998775;28;20401;-69
2023/03/15 06:20:25;;;;;;;13.32;6.32;;;;;;;2.56;100.00;99361.25;5005656;28;20145;-71
2023/03/15 06:22:50;;;;;;;12.35;6.70;;;;;;;2.21;100.00;99299.44;5000563;28;20073;-70
2023/03/15 06:25:16;;;;;;;10.82;5.28;;;;;;;1.98;100.00;99233.53;5003375;28;20508;-69
2023/03/15 06:27:41;;;;;;;27.90;8.32;;;;;;;3.09;100.00;99371.50;4997532;28;20561;-69
2023/03/15 06:30:08;;;;;;;29.63;8.23;;;;;;;2.53;100.00;99315.47;5029766;28;20153;-73
2023/03/15 06:32:34;;;;;;;11.93;6.57;;;;;;;2.63;100.00;99256.03;5002061;28;20585;-71
2023/03/15 06:34:59;;;;;;;11.45;5.53;;;;;;;2.87;100.00;99309.88;4998711;28;20053;-70
2023/03/15 06:37:25;;;;;;;12.50;5.75;;;;;;;3.21;100.00;99385.44;4997751;28;20489;-71
2023/03/15 06:39:51;;;;;;;10.32;7.18;;;;;;;2.70;100.00;99283.75;5001325;28;20082;-71
2023/03/15 06:42:17;;;;;;;9.57;5.68;;;;;;;3.42;100.00;99382.25;4997396;28;20049;-70
2023/03/15 06:44:42;;;;;;;14.73;6.03;;;;;;;1.36;100.00;99053.31;4997199;28;20054;-70
2023/03/15 06:47:09;;;;;;;10.38;5.47;;;;;;;3.46;100.00;99399.59;5000098;28;20729;-71
2023/03/15 06:49:35;;;;;;;13.93;6.97;;;;;;;2.81;100.00;99281.28;5000469;28;20043;-72
2023/03/15 06:52:02;;;;;;;12.40;7.03;;;;;;;3.79;100.00;99405.19;5001899;28;20029;-71
2023/03/15 06:54:28;;;;;;;10.38;7.15;;;;;;;3.83;100.00;99425.97;5003484;28;20060;-72
2023/03/15 06:56:54;;;;;;;19.88;7.60;;;;;;;3.21;100.00;99394.13;4998556;28;20486;-70
2023/03/15 06:59:20;;;;;;;15.50;7.05;;;;;;;3.48;100.00;99418.63;5000303;28;20042;-72
2023/03/15 07:01:45;;;;;;;11.00;5.72;;;;;;;3.55;100.00;99391.91;5003383;28;20099;-71
2023/03/15 07:04:11;;;;;;;17.98;8.27;;;;;;;2.85;100.00;99289.09;5001444;28;20581;-71
2023/03/15 07:06:36;;;;;;;10.18;6.28;;;;;;;3.12;100.00;99330.06;5002734;28;20033;-73
2023/03/15 07:09:04;;;;;;;13.50;7.45;;;;;;;2.71;100.00;99293.25;5006153;28;20185;-70
2023/03/15 07:11:29;;;;;;;10.45;5.47;;;;;;;3.49;100.00;99415.19;4992830;28;20129;-70
2023/03/15 07:13:55;;;;;;;16.15;8.02;;;;;;;2.82;100.00;99278.72;5006958;28;20132;-70
2023/03/15 07:16:20;;;;;;;35.72;8.30;;;;;;;3.12;100.00;99321.41;5006232;28;20046;-70
2023/03/15 07:18:46;;;;;;;10.05;6.82;;;;;;;3.24;100.00;99297.38;5005460;28;20117;-70
2023/03/15 07:21:11;;;;;;;23.17;8.63;;;;;;;3.44;100.00;99368.47;5005714;28;20041;-71
2023/03/15 07:23:37;;;;;;;16.20;7.30;;;;;;;3.93;100.00;99425.19;5004898;28;20038;-73
2023/03/15 07:26:02;;;;;;;11.32;6.00;;;;;;;3.23;100.00;99300.78;4995743;28;20050;-72
2023/03/15 07:28:28;;;;;;;10.00;5.80;;;;;;;4.01;100.00;99389.84;5006289;28;20547;-71
2023/03/15 07:30:59;;;;;;;18.48;9.70;;;;;;;3.58;100.00;99327.09;5006254;28;21383;-71
2023/03/15 07:33:26;;;;;;;8.65;6.65;;;;;;;4.23;100.00;99367.53;5002372;28;20058;-71
2023/03/15 07:35:52;;;;;;;14.60;6.90;;;;;;;4.34;100.00;99391.00;5004663;28;20049;-71
2023/03/15 07:38:19;;;;;;;11.00;6.38;;;;;;;3.92;100.00;99283.34;4999989;28;20088;-72
2023/03/15 07:40:45;;;;;;;15.75;6.75;;;;;;;4.95;100.00;99411.38;5006093;28;20061;-70
2023/03/15 07:43:10;;;;;;;12.43;7.03;;;;;;;5.17;100.00;99408.00;5008477;28;20092;-73
2023/03/15 07:45:36;;;;;;;14.30;6.78;;;;;;;4.14;100.00;99300.81;5007722;28;20478;-70
2023/03/15 07:48:02;;;;;;;11.05;5.65;;;;;;;4.42;100.00;99290.63;5002355;28;20457;-70
2023/03/15 07:50:27;;;;;;;12.75;6.35;;;;;;;4.74;100.00;99319.41;5003721;28;20072;-71
2023/03/15 07:52:53;;;;;;;11.07;6.95;;;;;;;5.52;100.00;99429.88;5005592;28;20386;-71
2023/03/15 07:55:18;;;;;;;15.95;5.60;;;;;;;5.21;100.00;99437.53;5000950;28;20037;-71
2023/03/15 07:57:44;;;;;;;7.95;5.43;;;;;;;5.37;100.00;99433.28;5008923;28;20038;-70
2023/03/15 08:00:12;;;;;;;8.80;5.10;;;;;;;5.37;100.00;99409.88;5003339;28;20363;-70
2023/03/15 08:02:39;;;;;;;9.82;5.05;;;;;;;5.38;100.00;99429.81;5000162;28;20042;-72
2023/03/15 08:05:05;;;;;;;17.38;6.32;;;;;;;5.57;100.00;99425.56;5003937;28;20164;-70
2023/03/15 08:07:31;;;;;;;12.02;7.32;;;;;;;5.33;100.00;99390.75;5000384;28;20128;-72
2023/03/15 08:10:00;;;;;;;9.15;5.90;;;;;;;4.84;100.00;99297.78;5006218;28;20034;-72
2023/03/15 08:12:26;;;;;;;11.48;6.53;;;;;;;4.80;100.00;99283.06;4998996;28;20030;-71
2023/03/15 08:14:51;;;;;;;19.23;7.47;;;;;;;5.86;100.00;99399.66;5004645;28;20042;-72
2023/03/15 08:17:17;;;;;;;10.45;5.45;;;;;;;5.88;100.00;99426.56;5005709;28;20041;-70
2023/03/15 08:19:43;;;;;;;11.10;6.13;;;;;;;5.33;100.00;99298.88;5004462;28;20565;-71
2023/03/15 08:22:09;;;;;;;7.60;4.57;;;;;;;5.41;100.00;99292.84;4994673;28;20053;-70
2023/03/15 08:24:35;;;;;;;9.07;4.80;;;;;;;6.02;100.00;99391.03;5002309;28;20137;-73
2023/03/15 08:27:01;;;;;;;9.10;5.80;;;;;;;5.99;100.00;99404.03;5007119;28;20127;-70
2023/03/15 08:29:27;;;;;;;23.25;5.95;;;;;;;5.53;100.00;99296.34;5004327;28;20402;-73
2023/03/15 08:31:53;;;;;;;10.10;5.88;;;;;;;6.40;100.00;99390.19;5006759;28;20033;-70
2023/03/15 08:34:18;;;;;;;22.90;7.00;;;;;;;5.83;100.00;99290.28;5003863;28;20056;-70
2023/03/15 08:36:46;;;;;;;11.93;4.88;;;;;;;5.61;100.00;99295.47;5004955;28;20099;-70
2023/03/15 08:39:11;;;;;;;7.45;4.28;;;;;;;5.81;100.00;99326.75;5000390;28;20050;-71
2023/03/15 08:41:39;;;;;;;5.80;4.18;;;;;;;5.85;100.00;99332.81;5003508;28;20049;-71
2023/03/15 08:44:05;;;;;;;15.68;7.50;;;;;;;5.96;100.00;99314.66;5003448;28;20430;-69
2023/03/15 08:46:31;;;;;;;13.82;5.10;;;;;;;6.90;100.00;99423.19;5004565;28;20042;-70
2023/03/15 08:48:57;;;;;;;11.90;7.10;;;;;;;7.06;100.00;99428.38;5001495;28;20048;-73
2023/03/15 08:51:24;;;;;;;9.15;5.30;;;;;;;6.84;100.00;99391.06;5002314;28;20481;-72
2023/03/15 08:53:50;;;;;;;13.98;6.07;;;;;;;6.89;100.00;99329.34;5002217;28;20120;-69
2023/03/15 08:56:16;;;;;;;12.27;5.30;;;;;;;7.55;100.00;99423.03;5003428;28;20049;-71
2023/03/15 08:58:42;;;;;;;10.57;4.78;;;;;;;7.12;100.00;99444.03;5005286;28;20152;-72
2023/03/15 09:01:10;;;;;;;11.15;5.63;;;;;;;7.53;100.00;99456.97;5002095;28;20387;-72
2023/03/15 09:03:36;;;;;;;13.45;4.60;;;;;;;7.48;100.00;99435.22;4995056;28;20030;-72
2023/03/15 09:06:01;;;;;;;16.33;6.68;;;;;;;7.27;100.00;99316.13;5002514;28;20116;-71
2023/03/15 09:08:27;;;;;;;14.43;5.03;;;;;;;7.14;100.00;99337.94;5006749;28;20119;-72
2023/03/15 09:10:56;;;;;;;11.80;6.05;;;;;;;7.39;100.00;99355.22;5001145;28;20065;-74
2023/03/15 09:13:23;;;;;;;11.85;7.18;;;;;;;7.25;100.00;99325.72;5005461;28;20054;-73
2023/03/15 09:15:50;;;;;;;12.70;7.72;;;;;;;7.76;100.00;99403.81;5002334;28;20037;-72
2023/03/15 09:18:16;;;;;;;12.63;7.50;;;;;;;8.00;100.00;99348.78;4997107;28;20304;-71
2023/03/15 09:20:42;;;;;;;16.55;7.70;;;;;;;7.50;100.00;99344.75;5003902;28;20053;-72
2023/03/15 09:23:07;;;;;;;18.38;7.68;;;;;;;8.56;100.00;99434.69;5006675;28;20460;-73
2023/03/15 09:25:35;;;;;;;16.15;7.00;;;;;;;8.33;100.00;99427.81;5005302;28;20041;-74
2023/03/15 09:28:01;;;;;;;17.77;7.43;;;;;;;8.13;100.00;99407.06;5006515;28;20131;-71
2023/03/15 09:30:27;;;;;;;17.75;6.75;;;;;;;8.37;100.00;99406.03;5006848;28;20481;-73
2023/03/15 09:32:53;;;;;;;12.80;7.53;;;;;;;8.54;100.00;99432.06;4996927;28;20446;-73
2023/03/15 09:35:20;;;;;;;12.98;6.63;;;;;;;7.71;100.00;99322.88;4997641;28;20052;-73
2023/03/15 09:37:47;;;;;;;10.98;7.20;;;;;;;8.42;100.00;99426.94;5003241;28;20050;-72
2023/03/15 09:40:18;;;;;;;15.13;7.40;;;;;;;8.59;100.00;99404.16;4992449;28;20130;-71
2023/03/15 09:43:12;;;;;;;16.67;7.47;;;;;;;8.53;100.00;99409.44;5002245;28;20038;-70
2023/03/15 09:46:12;;;;;;;23.63;7.72;;;;;;;9.10;100.00;99453.38;4995495;28;20046;-72
2023/03/15 09:48:49;;;;;;;22.90;8.82;;;;;;;9.23;100.00;99456.78;5000341;28;20054;-73
2023/03/15 09:51:30;;;;;;;14.48;6.65;;;;;;;9.03;100.00;99449.09;5000878;28;20359;-70
2023/03/15 09:54:08;;;;;;;10.50;6.55;;;;;;;8.32;100.00;99326.78;5002542;28;20450;-70
2023/03/15 09:57:00;;;;;;;12.77;5.93;;;;;;;9.03;100.00;99439.50;5004485;28;20060;-70
2023/03/15 09:59:33;;;;;;;14.18;6.57;;;;;;;8.83;100.00;99328.97;5001756;28;20041;-70
2023/03/15 10:02:03;;;;;;;13.70;7.20;;;;;;;8.84;100.00;99342.00;4997190;28;20104;-73
2023/03/15 10:04:40;;;;;;;15.38;6.70;;;;;;;9.71;100.00;99454.47;5001322;28;20049;-72
2023/03/15 10:07:12;;;;;;;15.18;7.72;;;;;;;9.67;100.00;99443.19;4995081;28;20137;-70
2023/03/15 10:09:37;;;;;;;18.05;7.50;;;;;;;9.77;100.00;99326.06;5002292;28;20034;-71
2023/03/15 10:12:04;;;;;;;19.23;7.70;;;;;;;10.29;100.00;99445.88;5001415;28;20046;-71
2023/03/15 10:15:02;;;;;;;23.08;7.35;;;;;;;9.76;100.00;99334.78;4998614;28;20046;-71
2023/03/15 10:18:00;;;;;;;9.98;5.90;;;;;;;9.72;100.00;99367.16;5002337;28;20042;-70
2023/03/15 10:20:33;;;;;;;13.68;8.05;;;;;;;9.41;100.00;99338.75;4996772;28;20053;-73
2023/03/15 10:23:10;;;;;;;23.25;6.28;;;;;;;9.83;100.00;99330.31;4986284;28;20045;-70
2023/03/15 10:25:37;;;;;;;19.95;5.45;;;;;;;10.38;100.00;99438.78;4985416;28;20047;-70
2023/03/15 10:28:22;;;;;;;9.45;6.07;;;;;;;9.87;100.00;99325.03;4995735;28;20043;-70
2023/03/15 10:30:50;;;;;;;12.15;6.22;;;;;;;10.48;100.00;99424.63;4985826;28;20154;-70
2023/03/15 10:33:17;;;;;;;10.85;6.43;;;;;;;9.74;100.00;99318.25;4986043;28;20043;-71
2023/03/15 10:35:42;;;;;;;12.38;6.35;;;;;;;10.33;100.00;99423.97;4983654;28;20125;-70
2023/03/15 10:38:15;;;;;;;8.15;5.53;;;;;;;9.78;100.00;99300.72;4984968;28;20051;-71
2023/03/15 10:40:49;;;;;;;7.07;4.75;;;;;;;9.78;100.00;99292.84;4979832;28;20133;-71
2023/03/15 10:43:22;;;;;;;14.80;6.05;;;;;;;10.56;100.00;99418.38;4987110;28;20133;-71
2023/03/15 10:45:59;;;;;;;14.18;6.70;;;;;;;11.05;100.00;99407.94;4982676;28;20039;-72
2023/03/15 10:48:27;;;;;;;11.10;4.82;;;;;;;9.93;97.26;99217.50;4988450;28;20490;-72
2023/03/15 10:50:54;;;;;;;23.50;6.82;;;;;;;11.04;98.43;99377.31;4987940;28;20692;-70
2023/03/15 10:53:20;;;;;;;28.90;6.57;;;;;;;11.47;94.13;99389.63;4988816;28;20059;-73
2023/03/15 10:55:47;;;;;;;8.77;4.43;;;;;;;10.16;89.02;99218.88;4988295;28;20043;-71
2023/03/15 10:58:30;;;;;;;7.97;4.63;;;;;;;11.17;88.41;99373.59;4986806;28;20050;-70
2023/03/15 11:01:08;;;;;;;9.38;5.05;;;;;;;10.63;90.05;99308.97;4988588;28;20133;-72
2023/03/15 11:03:35;;;;;;;13.20;5.18;;;;;;;11.11;90.89;99403.44;4981839;28;20085;-71
2023/03/15 11:06:01;;;;;;;10.27;5.05;;;;;;;10.37;93.42;99288.44;4989194;28;20407;-73
2023/03/15 11:08:40;;;;;;;11.38;5.85;;;;;;;11.30;92.68;99385.56;4989046;28;20078;-69
2023/03/15 11:11:07;;;;;;;12.20;6.18;;;;;;;10.98;87.49;99308.31;4984506;28;20521;-74
2023/03/15 11:13:36;;;;;;;10.18;4.43;;;;;;;11.02;90.54;99390.47;4988849;28;20046;-69
2023/03/15 11:16:19;;;;;;;8.77;5.50;;;;;;;11.08;88.08;99289.75;4988838;28;20459;-71
2023/03/15 11:18:53;;;;;;;13.93;4.65;;;;;;;11.23;85.27;99376.06;4986219;28;20042;-70
2023/03/15 11:21:22;;;;;;;8.18;5.53;;;;;;;10.98;86.41;99342.44;5007051;28;20080;-71
2023/03/15 11:23:49;;;;;;;11.75;6.75;;;;;;;10.98;90.08;99352.94;4992998;28;20565;-71
2023/03/15 11:26:21;;;;;;;10.70;5.72;;;;;;;10.52;87.26;99266.34;4992653;28;20049;-71
2023/03/15 11:28:58;;;;;;;16.80;5.57;;;;;;;11.17;87.35;99363.94;5005277;28;20066;-71
2023/03/15 11:31:27;;;;;;;13.27;7.25;;;;;;;11.42;87.69;99368.69;5004690;28;20046;-71